sensor_id;sensor_type;location;lat;lon;timestamp;P1;durP1;ratioP1;P2;durP2;ratioP2
9270;SDS011;4673;53.458;9.940;2024-03-23T00:53:14;4.43;;;4.33;;
9270;SDS011;4673;53.458;9.940;2024-03-23T00:55:44;4.90;;;4.80;;
9270;SDS011;4673;53.458;9.940;2024-03-23T00:58:09;4.77;;;4.77;;
9270;SDS011;4673;53.458;9.940;2024-03-23T01:00:35;4.83;;;4.83;;
9270;SDS011;4673;53.458;9.940;2024-03-23T01:03:01;5.17;;;5.07;;
9270;SDS011;4673;53.458;9.940;2024-03-23T01:05:26;3.73;;;3.73;;
9270;SDS011;4673;53.458;9.940;2024-03-23T01:07:52;3.87;;;3.77;;
9270;SDS011;4673;53.458;9.940;2024-03-23T01:10:18;4.53;;;4.43;;
9270;SDS011;4673;53.458;9.940;2024-03-23T01:12:43;4.00;;;3.90;;
9270;SDS011;4673;53.458;9.940;2024-03-23T01:15:09;4.53;;;4.43;;
9270;SDS011;4673;53.458;9.940;2024-03-23T01:17:35;5.10;;;5.00;;
9270;SDS011;4673;53.458;9.940;2024-03-23T01:20:00;4.20;;;4.10;;
9270;SDS011;4673;53.458;9.940;2024-03-23T01:22:27;4.87;;;4.77;;
9270;SDS011;4673;53.458;9.940;2024-03-23T01:24:53;4.20;;;4.10;;
9270;SDS011;4673;53.458;9.940;2024-03-23T01:27:19;4.43;;;4.33;;
9270;SDS011;4673;53.458;9.940;2024-03-23T01:29:44;3.47;;;3.37;;
9270;SDS011;4673;53.458;9.940;2024-03-23T01:32:10;4.87;;;4.77;;
9270;SDS011;4673;53.458;9.940;2024-03-23T01:34:35;5.87;;;5.77;;
9270;SDS011;4673;53.458;9.940;2024-03-23T01:37:01;3.93;;;3.83;;
9270;SDS011;4673;53.458;9.940;2024-03-23T01:39:27;4.80;;;4.70;;
9270;SDS011;4673;53.458;9.940;2024-03-23T01:41:52;4.37;;;4.37;;
9270;SDS011;4673;53.458;9.940;2024-03-23T01:44:18;4.47;;;4.37;;
9270;SDS011;4673;53.458;9.940;2024-03-23T01:46:44;3.97;;;3.97;;
9270;SDS011;4673;53.458;9.940;2024-03-23T01:49:09;3.57;;;3.47;;
9270;SDS011;4673;53.458;9.940;2024-03-23T01:51:36;4.23;;;4.13;;
9270;SDS011;4673;53.458;9.940;2024-03-23T01:54:02;5.00;;;4.90;;
9270;SDS011;4673;53.458;9.940;2024-03-23T01:56:29;4.93;;;4.83;;
9270;SDS011;4673;53.458;9.940;2024-03-23T01:58:58;4.13;;;4.03;;
9270;SDS011;4673;53.458;9.940;2024-03-23T02:01:24;5.77;;;5.67;;
9270;SDS011;4673;53.458;9.940;2024-03-23T02:03:50;4.33;;;4.23;;
9270;SDS011;4673;53.458;9.940;2024-03-23T02:06:15;6.10;;;6.00;;
9270;SDS011;4673;53.458;9.940;2024-03-23T02:08:41;3.80;;;3.70;;
9270;SDS011;4673;53.458;9.940;2024-03-23T02:11:07;4.30;;;4.27;;
9270;SDS011;4673;53.458;9.940;2024-03-23T02:13:33;6.77;;;6.67;;
9270;SDS011;4673;53.458;9.940;2024-03-23T02:15:58;4.90;;;4.77;;
9270;SDS011;4673;53.458;9.940;2024-03-23T02:18:24;3.77;;;3.67;;
9270;SDS011;4673;53.458;9.940;2024-03-23T02:20:49;4.30;;;4.20;;
9270;SDS011;4673;53.458;9.940;2024-03-23T02:23:16;4.13;;;4.03;;
9270;SDS011;4673;53.458;9.940;2024-03-23T02:25:43;5.50;;;5.40;;
9270;SDS011;4673;53.458;9.940;2024-03-23T02:28:09;3.67;;;3.57;;
9270;SDS011;4673;53.458;9.940;2024-03-23T02:30:35;6.57;;;6.47;;
9270;SDS011;4673;53.458;9.940;2024-03-23T02:33:00;4.80;;;4.70;;
9270;SDS011;4673;53.458;9.940;2024-03-23T02:35:26;3.93;;;3.83;;
9270;SDS011;4673;53.458;9.940;2024-03-23T02:37:52;4.10;;;4.00;;
9270;SDS011;4673;53.458;9.940;2024-03-23T02:40:19;4.23;;;4.13;;
9270;SDS011;4673;53.458;9.940;2024-03-23T02:42:45;3.97;;;3.87;;
9270;SDS011;4673;53.458;9.940;2024-03-23T02:45:11;4.43;;;4.33;;
9270;SDS011;4673;53.458;9.940;2024-03-23T02:47:37;3.57;;;3.57;;
9270;SDS011;4673;53.458;9.940;2024-03-23T02:50:03;4.97;;;4.87;;
9270;SDS011;4673;53.458;9.940;2024-03-23T02:52:29;3.63;;;3.63;;
9270;SDS011;4673;53.458;9.940;2024-03-23T02:54:55;4.80;;;4.70;;
9270;SDS011;4673;53.458;9.940;2024-03-23T02:57:20;4.60;;;4.50;;
9270;SDS011;4673;53.458;9.940;2024-03-23T02:59:46;4.93;;;4.83;;
9270;SDS011;4673;53.458;9.940;2024-03-23T03:02:12;5.13;;;5.03;;
9270;SDS011;4673;53.458;9.940;2024-03-23T03:04:38;4.17;;;4.07;;
9270;SDS011;4673;53.458;9.940;2024-03-23T03:07:04;4.17;;;4.07;;
9270;SDS011;4673;53.458;9.940;2024-03-23T03:09:30;4.83;;;4.73;;
9270;SDS011;4673;53.458;9.940;2024-03-23T03:11:55;4.43;;;4.33;;
9270;SDS011;4673;53.458;9.940;2024-03-23T03:14:21;4.67;;;4.57;;
9270;SDS011;4673;53.458;9.940;2024-03-23T03:16:47;5.43;;;5.33;;
9270;SDS011;4673;53.458;9.940;2024-03-23T03:19:13;3.70;;;3.60;;
9270;SDS011;4673;53.458;9.940;2024-03-23T03:21:38;4.80;;;4.70;;
9270;SDS011;4673;53.458;9.940;2024-03-23T03:24:06;4.77;;;4.67;;
9270;SDS011;4673;53.458;9.940;2024-03-23T03:26:31;4.47;;;4.37;;
9270;SDS011;4673;53.458;9.940;2024-03-23T03:28:57;4.63;;;4.63;;
9270;SDS011;4673;53.458;9.940;2024-03-23T03:31:23;4.87;;;4.77;;
9270;SDS011;4673;53.458;9.940;2024-03-23T03:33:49;5.60;;;5.50;;
9270;SDS011;4673;53.458;9.940;2024-03-23T03:36:16;3.90;;;3.80;;
9270;SDS011;4673;53.458;9.940;2024-03-23T03:38:42;3.67;;;3.63;;
9270;SDS011;4673;53.458;9.940;2024-03-23T03:41:07;3.30;;;3.30;;
9270;SDS011;4673;53.458;9.940;2024-03-23T03:43:33;4.47;;;4.37;;
9270;SDS011;4673;53.458;9.940;2024-03-23T03:46:00;3.93;;;3.83;;
9270;SDS011;4673;53.458;9.940;2024-03-23T03:48:26;4.60;;;4.50;;
9270;SDS011;4673;53.458;9.940;2024-03-23T03:50:52;3.40;;;3.40;;
9270;SDS011;4673;53.458;9.940;2024-03-23T03:53:18;4.07;;;4.00;;
9270;SDS011;4673;53.458;9.940;2024-03-23T03:55:44;2.97;;;2.90;;
9270;SDS011;4673;53.458;9.940;2024-03-23T03:58:09;4.07;;;4.07;;
9270;SDS011;4673;53.458;9.940;2024-03-23T04:00:35;4.33;;;4.23;;
9270;SDS011;4673;53.458;9.940;2024-03-23T04:03:01;4.40;;;4.30;;
9270;SDS011;4673;53.458;9.940;2024-03-23T04:05:27;3.67;;;3.67;;
9270;SDS011;4673;53.458;9.940;2024-03-23T04:07:52;3.40;;;3.30;;
9270;SDS011;4673;53.458;9.940;2024-03-23T04:10:19;4.00;;;3.90;;
9270;SDS011;4673;53.458;9.940;2024-03-23T04:12:45;3.73;;;3.67;;
9270;SDS011;4673;53.458;9.940;2024-03-23T04:15:11;3.90;;;3.80;;
9270;SDS011;4673;53.458;9.940;2024-03-23T04:17:36;5.40;;;5.30;;
9270;SDS011;4673;53.458;9.940;2024-03-23T04:20:02;4.33;;;4.23;;
9270;SDS011;4673;53.458;9.940;2024-03-23T04:22:34;3.90;;;3.80;;
9270;SDS011;4673;53.458;9.940;2024-03-23T04:25:00;3.13;;;3.13;;
9270;SDS011;4673;53.458;9.940;2024-03-23T04:27:34;3.97;;;3.97;;
9270;SDS011;4673;53.458;9.940;2024-03-23T04:30:01;4.70;;;4.60;;
9270;SDS011;4673;53.458;9.940;2024-03-23T04:32:28;4.07;;;3.97;;
9270;SDS011;4673;53.458;9.940;2024-03-23T04:34:54;3.33;;;3.33;;
9270;SDS011;4673;53.458;9.940;2024-03-23T04:37:20;4.37;;;4.27;;
9270;SDS011;4673;53.458;9.940;2024-03-23T04:39:46;3.70;;;3.60;;
9270;SDS011;4673;53.458;9.940;2024-03-23T04:42:14;4.37;;;4.27;;
9270;SDS011;4673;53.458;9.940;2024-03-23T04:44:40;4.67;;;4.57;;
9270;SDS011;4673;53.458;9.940;2024-03-23T04:47:06;3.57;;;3.53;;
9270;SDS011;4673;53.458;9.940;2024-03-23T04:49:32;6.13;;;6.03;;
9270;SDS011;4673;53.458;9.940;2024-03-23T04:51:58;3.97;;;3.97;;
9270;SDS011;4673;53.458;9.940;2024-03-23T04:54:23;3.47;;;3.47;;
9270;SDS011;4673;53.458;9.940;2024-03-23T04:56:49;3.90;;;3.90;;
9270;SDS011;4673;53.458;9.940;2024-03-23T04:59:15;4.30;;;4.20;;
9270;SDS011;4673;53.458;9.940;2024-03-23T05:01:40;3.63;;;3.63;;
9270;SDS011;4673;53.458;9.940;2024-03-23T05:04:07;3.97;;;3.87;;
9270;SDS011;4673;53.458;9.940;2024-03-23T05:06:33;3.97;;;3.97;;
9270;SDS011;4673;53.458;9.940;2024-03-23T05:08:59;4.50;;;4.40;;
9270;SDS011;4673;53.458;9.940;2024-03-23T05:11:30;3.50;;;3.50;;
9270;SDS011;4673;53.458;9.940;2024-03-23T05:13:56;4.10;;;4.10;;
9270;SDS011;4673;53.458;9.940;2024-03-23T05:16:22;3.60;;;3.60;;
9270;SDS011;4673;53.458;9.940;2024-03-23T05:18:48;3.97;;;3.97;;
9270;SDS011;4673;53.458;9.940;2024-03-23T05:21:13;4.47;;;4.37;;
9270;SDS011;4673;53.458;9.940;2024-03-23T05:23:39;3.73;;;3.67;;
9270;SDS011;4673;53.458;9.940;2024-03-23T05:26:04;3.47;;;3.37;;
9270;SDS011;4673;53.458;9.940;2024-03-23T05:28:30;4.03;;;3.93;;
9270;SDS011;4673;53.458;9.940;2024-03-23T05:30:56;5.47;;;5.37;;
9270;SDS011;4673;53.458;9.940;2024-03-23T05:33:24;3.83;;;3.83;;
9270;SDS011;4673;53.458;9.940;2024-03-23T05:36:00;4.23;;;4.13;;
9270;SDS011;4673;53.458;9.940;2024-03-23T05:38:26;3.53;;;3.53;;
9270;SDS011;4673;53.458;9.940;2024-03-23T05:40:53;5.07;;;4.97;;
9270;SDS011;4673;53.458;9.940;2024-03-23T05:43:19;4.77;;;4.67;;
9270;SDS011;4673;53.458;9.940;2024-03-23T05:45:44;4.47;;;4.37;;
9270;SDS011;4673;53.458;9.940;2024-03-23T05:48:10;4.10;;;4.00;;
9270;SDS011;4673;53.458;9.940;2024-03-23T05:50:36;4.40;;;4.40;;
9270;SDS011;4673;53.458;9.940;2024-03-23T05:53:02;3.37;;;3.27;;
9270;SDS011;4673;53.458;9.940;2024-03-23T05:55:29;3.53;;;3.53;;
9270;SDS011;4673;53.458;9.940;2024-03-23T05:57:55;4.83;;;4.73;;
9270;SDS011;4673;53.458;9.940;2024-03-23T06:00:21;4.27;;;4.17;;
9270;SDS011;4673;53.458;9.940;2024-03-23T06:02:47;3.70;;;3.67;;
9270;SDS011;4673;53.458;9.940;2024-03-23T06:05:12;3.80;;;3.80;;
9270;SDS011;4673;53.458;9.940;2024-03-23T06:07:38;3.87;;;3.77;;
9270;SDS011;4673;53.458;9.940;2024-03-23T06:10:07;4.80;;;4.70;;
9270;SDS011;4673;53.458;9.940;2024-03-23T06:12:33;4.80;;;4.70;;
9270;SDS011;4673;53.458;9.940;2024-03-23T06:14:59;3.30;;;3.30;;
9270;SDS011;4673;53.458;9.940;2024-03-23T06:17:25;4.63;;;4.53;;
9270;SDS011;4673;53.458;9.940;2024-03-23T06:19:50;4.03;;;3.93;;
9270;SDS011;4673;53.458;9.940;2024-03-23T06:22:16;3.87;;;3.77;;
9270;SDS011;4673;53.458;9.940;2024-03-23T06:24:42;4.23;;;4.13;;
9270;SDS011;4673;53.458;9.940;2024-03-23T06:27:07;3.83;;;3.83;;
9270;SDS011;4673;53.458;9.940;2024-03-23T06:29:33;3.40;;;3.40;;
9270;SDS011;4673;53.458;9.940;2024-03-23T06:31:58;3.43;;;3.33;;
9270;SDS011;4673;53.458;9.940;2024-03-23T06:34:24;4.07;;;3.97;;
9270;SDS011;4673;53.458;9.940;2024-03-23T06:36:50;4.73;;;4.63;;
9270;SDS011;4673;53.458;9.940;2024-03-23T06:39:16;4.57;;;4.47;;
9270;SDS011;4673;53.458;9.940;2024-03-23T06:41:42;3.50;;;3.40;;
9270;SDS011;4673;53.458;9.940;2024-03-23T06:44:16;3.73;;;3.63;;
9270;SDS011;4673;53.458;9.940;2024-03-23T06:46:42;3.27;;;3.23;;
9270;SDS011;4673;53.458;9.940;2024-03-23T06:49:08;4.33;;;4.33;;
9270;SDS011;4673;53.458;9.940;2024-03-23T06:51:33;3.70;;;3.70;;
9270;SDS011;4673;53.458;9.940;2024-03-23T06:53:59;5.47;;;5.37;;
9270;SDS011;4673;53.458;9.940;2024-03-23T06:56:25;4.37;;;4.37;;
9270;SDS011;4673;53.458;9.940;2024-03-23T06:58:50;4.60;;;4.50;;
9270;SDS011;4673;53.458;9.940;2024-03-23T07:01:16;3.60;;;3.60;;
9270;SDS011;4673;53.458;9.940;2024-03-23T07:03:42;2.97;;;2.97;;
9270;SDS011;4673;53.458;9.940;2024-03-23T07:06:09;3.80;;;3.70;;
9270;SDS011;4673;53.458;9.940;2024-03-23T07:08:35;3.20;;;3.20;;
9270;SDS011;4673;53.458;9.940;2024-03-23T07:11:01;3.37;;;3.37;;
9270;SDS011;4673;53.458;9.940;2024-03-23T07:13:27;4.30;;;4.30;;
9270;SDS011;4673;53.458;9.940;2024-03-23T07:15:53;3.47;;;3.47;;
9270;SDS011;4673;53.458;9.940;2024-03-23T07:18:20;3.30;;;3.30;;
9270;SDS011;4673;53.458;9.940;2024-03-23T07:20:56;3.83;;;3.83;;
9270;SDS011;4673;53.458;9.940;2024-03-23T07:23:23;4.20;;;4.10;;
9270;SDS011;4673;53.458;9.940;2024-03-23T07:26:04;5.00;;;4.90;;
9270;SDS011;4673;53.458;9.940;2024-03-23T07:28:33;5.17;;;5.07;;
9270;SDS011;4673;53.458;9.940;2024-03-23T07:31:08;3.20;;;3.20;;
9270;SDS011;4673;53.458;9.940;2024-03-23T07:33:35;4.40;;;4.40;;
9270;SDS011;4673;53.458;9.940;2024-03-23T07:36:01;3.80;;;3.80;;
9270;SDS011;4673;53.458;9.940;2024-03-23T07:38:28;3.83;;;3.73;;
9270;SDS011;4673;53.458;9.940;2024-03-23T07:41:06;4.00;;;3.90;;
9270;SDS011;4673;53.458;9.940;2024-03-23T07:43:33;4.27;;;4.27;;
9270;SDS011;4673;53.458;9.940;2024-03-23T07:46:00;3.80;;;3.70;;
9270;SDS011;4673;53.458;9.940;2024-03-23T07:48:26;4.27;;;4.20;;
9270;SDS011;4673;53.458;9.940;2024-03-23T07:51:10;3.80;;;3.80;;
9270;SDS011;4673;53.458;9.940;2024-03-23T07:53:36;4.07;;;4.07;;
9270;SDS011;4673;53.458;9.940;2024-03-23T07:56:05;6.23;;;6.13;;
9270;SDS011;4673;53.458;9.940;2024-03-23T07:58:31;3.70;;;3.70;;
9270;SDS011;4673;53.458;9.940;2024-03-23T08:01:03;4.57;;;4.57;;
9270;SDS011;4673;53.458;9.940;2024-03-23T08:03:30;4.03;;;3.97;;
9270;SDS011;4673;53.458;9.940;2024-03-23T08:05:56;3.57;;;3.57;;
9270;SDS011;4673;53.458;9.940;2024-03-23T08:08:22;3.97;;;3.87;;
9270;SDS011;4673;53.458;9.940;2024-03-23T08:10:48;3.67;;;3.67;;
9270;SDS011;4673;53.458;9.940;2024-03-23T08:13:18;3.83;;;3.83;;
9270;SDS011;4673;53.458;9.940;2024-03-23T08:15:44;3.53;;;3.53;;
9270;SDS011;4673;53.458;9.940;2024-03-23T08:18:11;4.00;;;3.90;;
9270;SDS011;4673;53.458;9.940;2024-03-23T08:20:38;4.07;;;3.97;;
9270;SDS011;4673;53.458;9.940;2024-03-23T08:23:05;3.97;;;3.97;;
9270;SDS011;4673;53.458;9.940;2024-03-23T08:25:31;3.33;;;3.23;;
9270;SDS011;4673;53.458;9.940;2024-03-23T08:27:57;3.90;;;3.90;;
9270;SDS011;4673;53.458;9.940;2024-03-23T08:30:23;5.37;;;5.27;;
9270;SDS011;4673;53.458;9.940;2024-03-23T08:32:49;3.77;;;3.77;;
9270;SDS011;4673;53.458;9.940;2024-03-23T08:35:15;3.53;;;3.53;;
9270;SDS011;4673;53.458;9.940;2024-03-23T08:37:41;3.60;;;3.57;;
9270;SDS011;4673;53.458;9.940;2024-03-23T08:40:06;5.67;;;5.57;;
9270;SDS011;4673;53.458;9.940;2024-03-23T08:42:33;3.43;;;3.43;;
9270;SDS011;4673;53.458;9.940;2024-03-23T08:44:59;3.30;;;3.30;;
9270;SDS011;4673;53.458;9.940;2024-03-23T08:47:25;3.23;;;3.23;;
9270;SDS011;4673;53.458;9.940;2024-03-23T08:49:51;4.47;;;4.37;;
9270;SDS011;4673;53.458;9.940;2024-03-23T08:52:16;3.97;;;3.97;;
9270;SDS011;4673;53.458;9.940;2024-03-23T08:54:42;3.27;;;3.27;;
9270;SDS011;4673;53.458;9.940;2024-03-23T08:57:08;3.17;;;3.17;;
9270;SDS011;4673;53.458;9.940;2024-03-23T08:59:34;4.77;;;4.77;;
9270;SDS011;4673;53.458;9.940;2024-03-23T09:01:59;4.63;;;4.53;;
9270;SDS011;4673;53.458;9.940;2024-03-23T09:04:25;3.90;;;3.90;;
9270;SDS011;4673;53.458;9.940;2024-03-23T09:06:51;3.60;;;3.60;;
9270;SDS011;4673;53.458;9.940;2024-03-23T09:09:16;3.23;;;3.23;;
9270;SDS011;4673;53.458;9.940;2024-03-23T09:11:42;3.73;;;3.73;;
9270;SDS011;4673;53.458;9.940;2024-03-23T09:14:08;3.33;;;3.33;;
9270;SDS011;4673;53.458;9.940;2024-03-23T09:16:34;3.50;;;3.50;;
9270;SDS011;4673;53.458;9.940;2024-03-23T09:19:00;3.83;;;3.83;;
9270;SDS011;4673;53.458;9.940;2024-03-23T09:21:26;3.40;;;3.40;;
9270;SDS011;4673;53.458;9.940;2024-03-23T09:23:51;3.67;;;3.67;;
9270;SDS011;4673;53.458;9.940;2024-03-23T09:26:17;3.03;;;3.03;;
9270;SDS011;4673;53.458;9.940;2024-03-23T09:28:43;2.80;;;2.80;;
9270;SDS011;4673;53.458;9.940;2024-03-23T09:31:08;2.60;;;2.60;;
9270;SDS011;4673;53.458;9.940;2024-03-23T09:33:39;2.47;;;2.47;;
9270;SDS011;4673;53.458;9.940;2024-03-23T09:36:05;2.87;;;2.87;;
9270;SDS011;4673;53.458;9.940;2024-03-23T09:38:32;2.70;;;2.70;;
9270;SDS011;4673;53.458;9.940;2024-03-23T09:40:58;2.43;;;2.43;;
9270;SDS011;4673;53.458;9.940;2024-03-23T09:43:24;2.43;;;2.43;;
9270;SDS011;4673;53.458;9.940;2024-03-23T09:45:50;2.47;;;2.47;;
9270;SDS011;4673;53.458;9.940;2024-03-23T09:48:16;2.67;;;2.67;;
9270;SDS011;4673;53.458;9.940;2024-03-23T09:50:43;2.77;;;2.77;;
9270;SDS011;4673;53.458;9.940;2024-03-23T09:53:10;2.80;;;2.80;;
9270;SDS011;4673;53.458;9.940;2024-03-23T09:55:37;2.37;;;2.37;;
9270;SDS011;4673;53.458;9.940;2024-03-23T09:58:07;2.43;;;2.43;;
9270;SDS011;4673;53.458;9.940;2024-03-23T10:00:36;2.80;;;2.80;;
9270;SDS011;4673;53.458;9.940;2024-03-23T10:03:02;2.40;;;2.40;;
9270;SDS011;4673;53.458;9.940;2024-03-23T10:05:28;3.00;;;3.00;;
9270;SDS011;4673;53.458;9.940;2024-03-23T10:07:56;2.30;;;2.30;;
9270;SDS011;4673;53.458;9.940;2024-03-23T10:10:22;2.60;;;2.60;;
9270;SDS011;4673;53.458;9.940;2024-03-23T10:12:50;2.30;;;2.30;;
9270;SDS011;4673;53.458;9.940;2024-03-23T10:15:18;3.57;;;3.57;;
9270;SDS011;4673;53.458;9.940;2024-03-23T10:17:48;2.17;;;2.17;;
9270;SDS011;4673;53.458;9.940;2024-03-23T10:20:20;2.33;;;2.33;;
9270;SDS011;4673;53.458;9.940;2024-03-23T10:22:48;2.57;;;2.57;;
9270;SDS011;4673;53.458;9.940;2024-03-23T10:25:16;2.27;;;2.27;;
9270;SDS011;4673;53.458;9.940;2024-03-23T10:27:43;1.87;;;1.87;;
9270;SDS011;4673;53.458;9.940;2024-03-23T10:30:09;2.40;;;2.40;;
9270;SDS011;4673;53.458;9.940;2024-03-23T10:32:36;2.43;;;2.43;;
9270;SDS011;4673;53.458;9.940;2024-03-23T10:35:18;1.73;;;1.73;;
9270;SDS011;4673;53.458;9.940;2024-03-23T10:37:48;2.17;;;2.17;;
9270;SDS011;4673;53.458;9.940;2024-03-23T10:40:15;2.20;;;2.20;;
9270;SDS011;4673;53.458;9.940;2024-03-23T10:42:41;1.97;;;1.97;;
9270;SDS011;4673;53.458;9.940;2024-03-23T10:45:08;2.27;;;2.27;;
9270;SDS011;4673;53.458;9.940;2024-03-23T10:47:34;1.83;;;1.83;;
9270;SDS011;4673;53.458;9.940;2024-03-23T10:50:01;2.97;;;2.97;;
9270;SDS011;4673;53.458;9.940;2024-03-23T10:52:27;2.17;;;2.17;;
9270;SDS011;4673;53.458;9.940;2024-03-23T10:54:52;2.60;;;2.60;;
9270;SDS011;4673;53.458;9.940;2024-03-23T10:57:20;2.70;;;2.70;;
9270;SDS011;4673;53.458;9.940;2024-03-23T10:59:48;1.70;;;1.70;;
9270;SDS011;4673;53.458;9.940;2024-03-23T11:02:20;2.43;;;2.43;;
9270;SDS011;4673;53.458;9.940;2024-03-23T11:04:46;1.70;;;1.70;;
9270;SDS011;4673;53.458;9.940;2024-03-23T11:07:32;1.47;;;1.47;;
9270;SDS011;4673;53.458;9.940;2024-03-23T11:09:59;2.13;;;2.13;;
9270;SDS011;4673;53.458;9.940;2024-03-23T11:12:26;2.40;;;2.40;;
9270;SDS011;4673;53.458;9.940;2024-03-23T11:17:24;1.90;;;1.90;;
9270;SDS011;4673;53.458;9.940;2024-03-23T11:23:04;2.93;;;2.93;;
9270;SDS011;4673;53.458;9.940;2024-03-23T11:27:48;2.00;;;2.00;;
9270;SDS011;4673;53.458;9.940;2024-03-23T11:30:27;1.87;;;1.87;;
9270;SDS011;4673;53.458;9.940;2024-03-23T11:32:56;1.70;;;1.70;;
9270;SDS011;4673;53.458;9.940;2024-03-23T11:35:29;1.70;;;1.70;;
9270;SDS011;4673;53.458;9.940;2024-03-23T11:43:07;1.50;;;1.50;;
9270;SDS011;4673;53.458;9.940;2024-03-23T11:45:35;1.73;;;1.73;;
9270;SDS011;4673;53.458;9.940;2024-03-23T11:48:06;1.57;;;1.57;;
9270;SDS011;4673;53.458;9.940;2024-03-23T11:50:41;2.17;;;2.17;;
9270;SDS011;4673;53.458;9.940;2024-03-23T11:55:41;1.67;;;1.67;;
9270;SDS011;4673;53.458;9.940;2024-03-23T11:58:09;2.00;;;2.00;;
9270;SDS011;4673;53.458;9.940;2024-03-23T12:00:35;1.60;;;1.60;;
9270;SDS011;4673;53.458;9.940;2024-03-23T12:03:01;1.90;;;1.90;;
9270;SDS011;4673;53.458;9.940;2024-03-23T12:05:28;2.30;;;2.30;;
9270;SDS011;4673;53.458;9.940;2024-03-23T12:07:54;4.13;;;4.13;;
9270;SDS011;4673;53.458;9.940;2024-03-23T12:10:20;3.87;;;3.87;;
9270;SDS011;4673;53.458;9.940;2024-03-23T12:12:46;2.60;;;2.60;;
9270;SDS011;4673;53.458;9.940;2024-03-23T12:15:23;2.20;;;2.20;;
9270;SDS011;4673;53.458;9.940;2024-03-23T12:17:48;1.70;;;1.70;;
9270;SDS011;4673;53.458;9.940;2024-03-23T12:20:14;1.77;;;1.77;;
9270;SDS011;4673;53.458;9.940;2024-03-23T12:22:40;1.30;;;1.30;;
9270;SDS011;4673;53.458;9.940;2024-03-23T12:25:05;5.80;;;5.80;;
9270;SDS011;4673;53.458;9.940;2024-03-23T12:27:31;1.60;;;1.60;;
9270;SDS011;4673;53.458;9.940;2024-03-23T12:29:57;1.40;;;1.40;;
9270;SDS011;4673;53.458;9.940;2024-03-23T12:32:23;1.60;;;1.60;;
9270;SDS011;4673;53.458;9.940;2024-03-23T12:34:48;1.63;;;1.63;;
9270;SDS011;4673;53.458;9.940;2024-03-23T12:37:14;1.60;;;1.60;;
9270;SDS011;4673;53.458;9.940;2024-03-23T12:39:42;1.83;;;1.83;;
9270;SDS011;4673;53.458;9.940;2024-03-23T12:42:08;1.73;;;1.73;;
9270;SDS011;4673;53.458;9.940;2024-03-23T12:44:33;1.53;;;1.53;;
9270;SDS011;4673;53.458;9.940;2024-03-23T12:46:59;1.20;;;1.20;;
9270;SDS011;4673;53.458;9.940;2024-03-23T12:49:24;0.70;;;0.70;;
9270;SDS011;4673;53.458;9.940;2024-03-23T12:51:54;1.23;;;1.23;;
9270;SDS011;4673;53.458;9.940;2024-03-23T12:54:20;0.90;;;0.90;;
9270;SDS011;4673;53.458;9.940;2024-03-23T12:56:46;0.80;;;0.80;;
9270;SDS011;4673;53.458;9.940;2024-03-23T12:59:12;0.93;;;0.93;;
9270;SDS011;4673;53.458;9.940;2024-03-23T13:01:38;1.10;;;1.10;;
9270;SDS011;4673;53.458;9.940;2024-03-23T13:04:04;1.40;;;1.40;;
9270;SDS011;4673;53.458;9.940;2024-03-23T13:06:30;1.13;;;1.13;;
9270;SDS011;4673;53.458;9.940;2024-03-23T13:09:02;0.93;;;0.93;;
9270;SDS011;4673;53.458;9.940;2024-03-23T13:11:29;1.50;;;1.50;;
9270;SDS011;4673;53.458;9.940;2024-03-23T13:13:55;2.00;;;2.00;;
9270;SDS011;4673;53.458;9.940;2024-03-23T13:16:21;1.10;;;1.10;;
9270;SDS011;4673;53.458;9.940;2024-03-23T13:18:46;1.53;;;1.53;;
9270;SDS011;4673;53.458;9.940;2024-03-23T13:21:12;1.33;;;1.33;;
9270;SDS011;4673;53.458;9.940;2024-03-23T13:23:38;1.17;;;1.17;;
9270;SDS011;4673;53.458;9.940;2024-03-23T13:26:07;1.20;;;1.20;;
9270;SDS011;4673;53.458;9.940;2024-03-23T13:28:33;1.40;;;1.40;;
9270;SDS011;4673;53.458;9.940;2024-03-23T13:30:58;2.10;;;2.10;;
9270;SDS011;4673;53.458;9.940;2024-03-23T13:33:28;2.67;;;2.67;;
9270;SDS011;4673;53.458;9.940;2024-03-23T13:35:55;1.40;;;1.40;;
9270;SDS011;4673;53.458;9.940;2024-03-23T13:38:23;1.10;;;1.10;;
9270;SDS011;4673;53.458;9.940;2024-03-23T13:43:15;1.13;;;1.13;;
9270;SDS011;4673;53.458;9.940;2024-03-23T13:45:41;1.17;;;1.17;;
9270;SDS011;4673;53.458;9.940;2024-03-23T13:48:07;1.13;;;1.13;;
9270;SDS011;4673;53.458;9.940;2024-03-23T13:50:33;0.80;;;0.80;;
9270;SDS011;4673;53.458;9.940;2024-03-23T13:52:59;0.70;;;0.70;;
9270;SDS011;4673;53.458;9.940;2024-03-23T13:55:24;0.93;;;0.93;;
9270;SDS011;4673;53.458;9.940;2024-03-23T13:57:50;0.90;;;0.90;;
9270;SDS011;4673;53.458;9.940;2024-03-23T14:00:16;0.73;;;0.73;;
9270;SDS011;4673;53.458;9.940;2024-03-23T14:02:43;1.20;;;1.20;;
9270;SDS011;4673;53.458;9.940;2024-03-23T14:05:09;1.27;;;1.27;;
9270;SDS011;4673;53.458;9.940;2024-03-23T14:07:36;0.67;;;0.67;;
9270;SDS011;4673;53.458;9.940;2024-03-23T14:10:02;0.97;;;0.97;;
9270;SDS011;4673;53.458;9.940;2024-03-23T14:12:29;0.60;;;0.60;;
9270;SDS011;4673;53.458;9.940;2024-03-23T14:14:55;1.03;;;1.03;;
9270;SDS011;4673;53.458;9.940;2024-03-23T14:17:20;1.10;;;1.10;;
9270;SDS011;4673;53.458;9.940;2024-03-23T14:19:46;1.10;;;1.10;;
9270;SDS011;4673;53.458;9.940;2024-03-23T14:22:12;0.83;;;0.83;;
9270;SDS011;4673;53.458;9.940;2024-03-23T14:24:37;0.80;;;0.80;;
9270;SDS011;4673;53.458;9.940;2024-03-23T14:27:03;1.10;;;1.10;;
9270;SDS011;4673;53.458;9.940;2024-03-23T14:29:30;0.90;;;0.90;;
9270;SDS011;4673;53.458;9.940;2024-03-23T14:31:56;1.03;;;1.03;;
9270;SDS011;4673;53.458;9.940;2024-03-23T14:34:22;1.07;;;1.07;;
9270;SDS011;4673;53.458;9.940;2024-03-23T14:36:51;1.70;;;1.70;;
9270;SDS011;4673;53.458;9.940;2024-03-23T14:39:16;1.13;;;1.13;;
9270;SDS011;4673;53.458;9.940;2024-03-23T14:41:42;1.00;;;1.00;;
9270;SDS011;4673;53.458;9.940;2024-03-23T14:44:08;1.43;;;1.43;;
9270;SDS011;4673;53.458;9.940;2024-03-23T14:46:33;1.60;;;1.60;;
9270;SDS011;4673;53.458;9.940;2024-03-23T14:48:59;1.50;;;1.50;;
9270;SDS011;4673;53.458;9.940;2024-03-23T14:51:24;0.90;;;0.90;;
9270;SDS011;4673;53.458;9.940;2024-03-23T14:53:50;1.13;;;1.13;;
9270;SDS011;4673;53.458;9.940;2024-03-23T14:56:15;1.43;;;1.43;;
9270;SDS011;4673;53.458;9.940;2024-03-23T14:58:42;1.17;;;1.17;;
9270;SDS011;4673;53.458;9.940;2024-03-23T15:01:08;1.27;;;1.27;;
9270;SDS011;4673;53.458;9.940;2024-03-23T15:03:34;1.90;;;1.90;;
9270;SDS011;4673;53.458;9.940;2024-03-23T15:06:08;1.13;;;1.13;;
9270;SDS011;4673;53.458;9.940;2024-03-23T15:08:34;1.40;;;1.40;;
9270;SDS011;4673;53.458;9.940;2024-03-23T15:11:01;1.67;;;1.67;;
9270;SDS011;4673;53.458;9.940;2024-03-23T15:13:36;1.30;;;1.30;;
9270;SDS011;4673;53.458;9.940;2024-03-23T15:16:02;1.10;;;1.10;;
9270;SDS011;4673;53.458;9.940;2024-03-23T15:18:29;1.40;;;1.40;;
9270;SDS011;4673;53.458;9.940;2024-03-23T15:20:56;0.93;;;0.93;;
9270;SDS011;4673;53.458;9.940;2024-03-23T15:23:22;1.17;;;1.17;;
9270;SDS011;4673;53.458;9.940;2024-03-23T15:25:55;1.00;;;1.00;;
9270;SDS011;4673;53.458;9.940;2024-03-23T15:28:25;0.80;;;0.80;;
9270;SDS011;4673;53.458;9.940;2024-03-23T15:31:14;0.73;;;0.73;;
9270;SDS011;4673;53.458;9.940;2024-03-23T15:33:39;0.90;;;0.90;;
9270;SDS011;4673;53.458;9.940;2024-03-23T15:36:05;0.90;;;0.90;;
9270;SDS011;4673;53.458;9.940;2024-03-23T15:38:31;0.70;;;0.70;;
9270;SDS011;4673;53.458;9.940;2024-03-23T15:40:57;1.00;;;1.00;;
9270;SDS011;4673;53.458;9.940;2024-03-23T15:43:23;0.90;;;0.90;;
9270;SDS011;4673;53.458;9.940;2024-03-23T15:45:55;1.23;;;1.23;;
9270;SDS011;4673;53.458;9.940;2024-03-23T15:48:25;0.97;;;0.97;;
9270;SDS011;4673;53.458;9.940;2024-03-23T15:50:55;1.47;;;1.47;;
9270;SDS011;4673;53.458;9.940;2024-03-23T15:53:25;1.67;;;1.67;;
9270;SDS011;4673;53.458;9.940;2024-03-23T15:58:20;1.10;;;1.10;;
9270;SDS011;4673;53.458;9.940;2024-03-23T16:01:06;0.90;;;0.90;;
9270;SDS011;4673;53.458;9.940;2024-03-23T16:03:36;1.30;;;1.30;;
9270;SDS011;4673;53.458;9.940;2024-03-23T16:06:03;1.90;;;1.90;;
9270;SDS011;4673;53.458;9.940;2024-03-23T16:08:30;1.20;;;1.20;;
9270;SDS011;4673;53.458;9.940;2024-03-23T16:11:02;0.90;;;0.90;;
9270;SDS011;4673;53.458;9.940;2024-03-23T16:13:29;1.00;;;1.00;;
9270;SDS011;4673;53.458;9.940;2024-03-23T16:15:56;0.90;;;0.90;;
9270;SDS011;4673;53.458;9.940;2024-03-23T16:18:26;0.80;;;0.80;;
9270;SDS011;4673;53.458;9.940;2024-03-23T16:20:52;0.67;;;0.67;;
9270;SDS011;4673;53.458;9.940;2024-03-23T16:23:18;0.80;;;0.80;;
9270;SDS011;4673;53.458;9.940;2024-03-23T16:25:47;1.00;;;1.00;;